Terminal Aerodrome Forecast
Issued by NWS

Home | Current Version | Previous Version | Text Only | Print | Product List | Glossary On
Versions: 1 2 3 4 5 6 7 8 9 10 11 12 13 14
272
FTAK31 PAJN 271736
TAFAYA
TAF
PAYA 271736Z 2718/2818 VRB04KT P6SM VCSH OVC050
     FM271900 09006KT 4SM -SN OVC025
      TEMPO 2719/2721 1SM -SN OVC015
     FM272100 08008KT 4SM -RASN OVC012
     FM280200 10012KT 3SM -RA BR BKN010 OVC020 WS015/12030KT
     FM280500 15009KT 6SM -SHRA BR BKN025 OVC035
     FM281000 10010KT 5SM -RA BR OVC015
      AMD LTD TO CLD VIS AND WIND 2801/2809=

USA.gov is the U.S. government's official web portal to all federal, state and local government web resources and services.